Time;durP1;ratioP1;P1;durP2;ratioP2;P2;SDS_P1;SDS_P2;PMS_P1;PMS_P2;Temp;Humidity;BMP_temperature;BMP_pressure;BME280_temperature;BME280_humidity;BME280_pressure;Samples;Min_cycle;Max_cycle;Signal;HPM_P1;HPM_P2
2023/03/16 00:01:46;;;;;;;;;;;;;;;;;;5006478;28;19922;-81
2023/03/16 00:04:36;;;;;;;;;;;;;;;;;;5003047;28;19925;-81
2023/03/16 00:07:23;;;;;;;;;;;;;;;;;;4997673;28;19967;-83
2023/03/16 00:10:11;;;;;;;;;;;;;;;;;;5006370;28;19918;-83
2023/03/16 00:12:57;;;;;;;;;;;;;;;;;;5005508;28;19933;-83
2023/03/16 00:15:44;;;;;;;;;;;;;;;;;;5005938;28;19921;-83
2023/03/16 00:18:37;;;;;;;;;;;;;;;;;;5005783;28;20693;-83
2023/03/16 00:21:23;;;;;;;;;;;;;;;;;;5004631;28;19917;-84
2023/03/16 00:24:11;;;;;;;;;;;;;;;;;;5003536;28;20325;-83
2023/03/16 00:26:58;;;;;;;;;;;;;;;;;;4997426;28;20388;-83
2023/03/16 00:29:45;;;;;;;;;;;;;;;;;;5004303;28;19913;-82
2023/03/16 00:32:32;;;;;;;;;;;;;;;;;;5002275;28;19917;-82
2023/03/16 00:35:18;;;;;;;;;;;;;;;;;;5003953;28;20658;-82
2023/03/16 00:38:05;;;;;;;;;;;;;;;;;;4996832;28;19922;-82
2023/03/16 00:40:52;;;;;;;;;;;;;;;;;;5000732;28;19940;-86
2023/03/16 00:43:43;;;;;;;;;;;;;;;;;;4998860;28;19921;-82
2023/03/16 00:46:30;;;;;;;;;;;;;;;;;;4999324;28;19939;-77
2023/03/16 00:49:16;;;;;;;;;;;;;;;;;;5005488;28;19928;-83
2023/03/16 00:52:03;;;;;;;;;;;;;;;;;;5001907;28;19921;-83
2023/03/16 00:54:53;;;;;;;;;;;;;;;;;;5004898;28;19921;-83
2023/03/16 00:57:40;;;;;;;;;;;;;;;;;;4997350;28;19922;-83
2023/03/16 01:00:27;;;;;;;;;;;;;;;;;;5003903;28;19929;-83
2023/03/16 01:03:14;;;;;;;;;;;;;;;;;;5003761;28;19929;-81
2023/03/16 01:06:00;;;;;;;;;;;;;;;;;;4993583;28;19925;-82
2023/03/16 01:08:46;;;;;;;;;;;;;;;;;;5004429;28;19929;-82
2023/03/16 01:11:33;;;;;;;;;;;;;;;;;;5000612;28;19920;-81
2023/03/16 01:14:19;;;;;;;;;;;;;;;;;;5004447;28;19921;-81
2023/03/16 01:17:08;;;;;;;;;;;;;;;;;;4995471;28;19965;-82
2023/03/16 01:19:54;;;;;;;;;;;;;;;;;;5002256;28;19952;-82
2023/03/16 01:22:41;;;;;;;;;;;;;;;;;;5000716;28;19914;-82
2023/03/16 01:25:27;;;;;;;;;;;;;;;;;;5003306;28;19917;-82
2023/03/16 01:28:14;;;;;;;;;;;;;;;;;;4997641;28;19921;-81
2023/03/16 01:31:00;;;;;;;;;;;;;;;;;;4999283;28;19924;-81
2023/03/16 01:33:47;;;;;;;;;;;;;;;;;;5004744;28;20394;-81
2023/03/16 01:36:33;;;;;;;;;;;;;;;;;;5005814;28;19952;-82
2023/03/16 01:39:20;;;;;;;;;;;;;;;;;;5002771;28;19917;-82
2023/03/16 01:42:06;;;;;;;;;;;;;;;;;;4997708;28;19917;-84
2023/03/16 01:44:53;;;;;;;;;;;;;;;;;;4999829;28;19924;-82
2023/03/16 01:47:41;;;;;;;;;;;;;;;;;;5002908;28;19917;-82
2023/03/16 01:50:27;;;;;;;;;;;;;;;;;;4998496;28;19921;-82
2023/03/16 01:53:14;;;;;;;;;;;;;;;;;;4996519;28;19913;-81
2023/03/16 01:56:01;;;;;;;;;;;;;;;;;;5008888;28;19921;-81
2023/03/16 01:58:47;;;;;;;;;;;;;;;;;;5002731;28;19921;-82
2023/03/16 02:01:33;;;;;;;;;;;;;;;;;;5005054;28;20483;-81
2023/03/16 02:04:21;;;;;;;;;;;;;;;;;;5000640;28;19936;-82
2023/03/16 02:07:08;;;;;;;;;;;;;;;;;;5003068;28;19937;-82
2023/03/16 02:09:54;;;;;;;;;;;;;;;;;;5004060;28;19926;-81
2023/03/16 02:12:41;;;;;;;;;;;;;;;;;;5004735;28;19917;-83
2023/03/16 02:15:28;;;;;;;;;;;;;;;;;;5003703;28;19918;-83
2023/03/16 02:18:14;;;;;;;;;;;;;;;;;;5002090;28;19917;-83
2023/03/16 02:21:01;;;;;;;;;;;;;;;;;;5003926;28;19925;-81
2023/03/16 02:23:49;;;;;;;;;;;;;;;;;;5002088;28;19922;-82
2023/03/16 02:26:36;;;;;;;;;;;;;;;;;;5002652;28;19928;-81
2023/03/16 02:29:24;;;;;;;;;;;;;;;;;;5002475;28;19917;-81
2023/03/16 02:32:11;;;;;;;;;;;;;;;;;;5003163;28;19945;-81
2023/03/16 02:34:57;;;;;;;;;;;;;;;;;;5003505;28;19913;-81
2023/03/16 02:37:43;;;;;;;;;;;;;;;;;;5002410;28;19937;-79
2023/03/16 02:40:30;;;;;;;;;;;;;;;;;;5000420;28;20658;-78
2023/03/16 02:43:16;;;;;;;;;;;;;;;;;;5005198;28;20484;-82
2023/03/16 02:46:03;;;;;;;;;;;;;;;;;;5002286;28;19917;-81
2023/03/16 02:48:50;;;;;;;;;;;;;;;;;;4999177;28;20396;-82
2023/03/16 02:51:36;;;;;;;;;;;;;;;;;;5002944;28;19937;-82
2023/03/16 02:54:23;;;;;;;;;;;;;;;;;;4996825;28;19913;-82
2023/03/16 02:57:10;;;;;;;;;;;;;;;;;;5007431;28;20324;-83
2023/03/16 02:59:56;;;;;;;;;;;;;;;;;;5010255;28;19956;-83
2023/03/16 03:02:43;;;;;;;;;;;;;;;;;;4992694;28;19933;-81
2023/03/16 03:05:29;;;;;;;;;;;;;;;;;;5002358;28;19921;-83
2023/03/16 03:08:15;;;;;;;;;;;;;;;;;;5001792;28;19917;-81
2023/03/16 03:11:02;;;;;;;;;;;;;;;;;;5001370;28;20285;-81
2023/03/16 03:13:48;;;;;;;;;;;;;;;;;;4999448;28;19924;-81
2023/03/16 03:16:35;;;;;;;;;;;;;;;;;;5001382;28;19956;-79
2023/03/16 03:19:22;;;;;;;;;;;;;;;;;;5000734;28;19921;-82
2023/03/16 03:22:08;;;;;;;;;;;;;;;;;;5002397;28;19940;-82
2023/03/16 03:24:55;;;;;;;;;;;;;;;;;;5005963;28;19944;-82
2023/03/16 03:27:41;;;;;;;;;;;;;;;;;;5005130;28;19923;-82
2023/03/16 03:30:27;;;;;;;;;;;;;;;;;;4996860;28;20361;-82
2023/03/16 03:33:14;;;;;;;;;;;;;;;;;;5000041;28;19948;-82
2023/03/16 03:36:00;;;;;;;;;;;;;;;;;;5005965;28;19925;-81
2023/03/16 03:38:48;;;;;;;;;;;;;;;;;;5005879;28;19937;-82
2023/03/16 03:41:35;;;;;;;;;;;;;;;;;;5005210;28;19936;-83
2023/03/16 03:44:21;;;;;;;;;;;;;;;;;;5006383;28;21375;-81
2023/03/16 03:47:08;;;;;;;;;;;;;;;;;;4999473;28;20597;-81
2023/03/16 03:49:54;;;;;;;;;;;;;;;;;;5003560;28;20515;-83
2023/03/16 03:52:40;;;;;;;;;;;;;;;;;;5003148;28;19917;-82
2023/03/16 03:55:27;;;;;;;;;;;;;;;;;;5008318;28;19948;-82
2023/03/16 03:58:13;;;;;;;;;;;;;;;;;;5007846;28;19926;-83
2023/03/16 04:01:00;;;;;;;;;;;;;;;;;;5004682;28;19917;-82
2023/03/16 04:03:46;;;;;;;;;;;;;;;;;;5005509;28;19936;-82
2023/03/16 04:06:33;;;;;;;;;;;;;;;;;;5000925;28;19925;-82
2023/03/16 04:09:19;;;;;;;;;;;;;;;;;;5006674;28;20421;-83
2023/03/16 04:12:06;;;;;;;;;;;;;;;;;;5001665;28;19923;-81
2023/03/16 04:14:52;;;;;;;;;;;;;;;;;;5005145;28;20495;-82
2023/03/16 04:17:39;;;;;;;;;;;;;;;;;;5007095;28;19928;-81
2023/03/16 04:20:25;;;;;;;;;;;;;;;;;;5005289;28;20277;-82
2023/03/16 04:23:12;;;;;;;;;;;;;;;;;;5006194;28;19923;-83
2023/03/16 04:25:59;;;;;;;;;;;;;;;;;;5000586;28;19918;-83
2023/03/16 04:28:46;;;;;;;;;;;;;;;;;;5006290;28;20278;-83
2023/03/16 04:31:32;;;;;;;;;;;;;;;;;;4994985;28;19928;-80
2023/03/16 04:34:23;;;;;;;;;;;;;;;;;;4999897;28;19921;-80
2023/03/16 04:37:10;;;;;;;;;;;;;;;;;;5000236;28;20420;-80
2023/03/16 04:39:57;;;;;;;;;;;;;;;;;;5001696;28;19921;-80
2023/03/16 04:42:43;;;;;;;;;;;;;;;;;;5001154;28;19917;-80
2023/03/16 04:45:31;;;;;;;;;;;;;;;;;;5001137;28;20524;-77
2023/03/16 04:48:18;;;;;;;;;;;;;;;;;;4996525;28;19922;-81
2023/03/16 04:51:04;;;;;;;;;;;;;;;;;;4999182;28;19922;-80
2023/03/16 04:53:51;;;;;;;;;;;;;;;;;;4997644;28;19926;-80
2023/03/16 04:56:40;;;;;;;;;;;;;;;;;;4998988;28;19936;-78
2023/03/16 04:59:26;;;;;;;;;;;;;;;;;;4998745;28;20365;-81
2023/03/16 05:02:13;;;;;;;;;;;;;;;;;;5000933;28;19929;-80
2023/03/16 05:04:59;;;;;;;;;;;;;;;;;;4995967;28;19925;-81
2023/03/16 05:07:46;;;;;;;;;;;;;;;;;;5001115;28;19918;-80
2023/03/16 05:10:32;;;;;;;;;;;;;;;;;;5003465;28;19922;-80
2023/03/16 05:13:19;;;;;;;;;;;;;;;;;;5000255;28;20854;-81
2023/03/16 05:16:06;;;;;;;;;;;;;;;;;;4998725;28;19929;-81
2023/03/16 05:18:52;;;;;;;;;;;;;;;;;;5002728;28;19929;-81
2023/03/16 05:21:39;;;;;;;;;;;;;;;;;;5002866;28;19921;-82
2023/03/16 05:24:25;;;;;;;;;;;;;;;;;;5003475;28;20461;-81
2023/03/16 05:27:12;;;;;;;;;;;;;;;;;;5002345;28;20285;-82
2023/03/16 05:30:00;;;;;;;;;;;;;;;;;;5004757;28;19936;-82
2023/03/16 05:32:46;;;;;;;;;;;;;;;;;;5001336;28;19944;-81
2023/03/16 05:35:33;;;;;;;;;;;;;;;;;;4998726;28;19922;-82
2023/03/16 05:38:19;;;;;;;;;;;;;;;;;;5013083;28;19917;-82
2023/03/16 05:41:05;;;;;;;;;;;;;;;;;;4996262;28;19928;-81
2023/03/16 05:43:52;;;;;;;;;;;;;;;;;;4999582;28;20393;-81
2023/03/16 05:46:38;;;;;;;;;;;;;;;;;;5000591;28;19928;-81
2023/03/16 05:49:25;;;;;;;;;;;;;;;;;;5005172;28;19921;-81
2023/03/16 05:52:12;;;;;;;;;;;;;;;;;;5006110;28;19917;-81
2023/03/16 05:54:59;;;;;;;;;;;;;;;;;;5003669;28;20663;-81
2023/03/16 05:57:45;;;;;;;;;;;;;;;;;;5004251;28;19936;-81
2023/03/16 06:00:32;;;;;;;;;;;;;;;;;;4998997;28;19917;-81
2023/03/16 06:03:18;;;;;;;;;;;;;;;;;;5006786;28;19933;-79
2023/03/16 06:06:04;;;;;;;;;;;;;;;;;;4997237;28;20434;-81
2023/03/16 06:08:51;;;;;;;;;;;;;;;;;;5002148;28;19918;-81
2023/03/16 06:11:37;;;;;;;;;;;;;;;;;;5004711;28;19944;-81
2023/03/16 06:14:24;;;;;;;;;;;;;;;;;;5005301;28;19918;-81
2023/03/16 06:17:10;;;;;;;;;;;;;;;;;;5003963;28;19929;-80
2023/03/16 06:19:57;;;;;;;;;;;;;;;;;;5003664;28;19918;-81
2023/03/16 06:22:43;;;;;;;;;;;;;;;;;;5002167;28;19921;-80
2023/03/16 06:25:30;;;;;;;;;;;;;;;;;;5002771;28;19921;-82
2023/03/16 06:28:16;;;;;;;;;;;;;;;;;;4997945;28;19918;-83
2023/03/16 06:31:03;;;;;;;;;;;;;;;;;;5003317;28;20428;-82
2023/03/16 06:33:50;;;;;;;;;;;;;;;;;;4999690;28;19925;-83
2023/03/16 06:36:38;;;;;;;;;;;;;;;;;;5003577;28;19926;-81
2023/03/16 06:39:25;;;;;;;;;;;;;;;;;;4996851;28;19953;-81
2023/03/16 06:42:11;;;;;;;;;;;;;;;;;;5003097;28;19917;-83
2023/03/16 06:44:57;;;;;;;;;;;;;;;;;;5000222;28;19994;-80
2023/03/16 06:47:44;;;;;;;;;;;;;;;;;;5002097;28;19925;-80
2023/03/16 06:50:30;;;;;;;;;;;;;;;;;;4998481;28;20364;-79
2023/03/16 06:53:17;;;;;;;;;;;;;;;;;;5002401;28;19918;-80
2023/03/16 06:56:03;;;;;;;;;;;;;;;;;;5001431;28;19921;-81
2023/03/16 06:58:50;;;;;;;;;;;;;;;;;;5002506;28;19917;-80
2023/03/16 07:01:37;;;;;;;;;;;;;;;;;;5002202;28;19929;-81
2023/03/16 07:04:23;;;;;;;;;;;;;;;;;;5002996;28;19929;-82
2023/03/16 07:07:10;;;;;;;;;;;;;;;;;;5001562;28;19917;-82
2023/03/16 07:09:57;;;;;;;;;;;;;;;;;;4997235;28;19917;-82
2023/03/16 07:12:43;;;;;;;;;;;;;;;;;;5000053;28;19921;-81
2023/03/16 07:15:30;;;;;;;;;;;;;;;;;;5002736;28;19932;-82
2023/03/16 07:18:16;;;;;;;;;;;;;;;;;;4995214;28;19925;-82
2023/03/16 07:21:03;;;;;;;;;;;;;;;;;;4998890;28;19940;-82
2023/03/16 07:23:50;;;;;;;;;;;;;;;;;;5007384;28;19918;-82
2023/03/16 07:26:37;;;;;;;;;;;;;;;;;;5001616;28;20297;-81
2023/03/16 07:29:23;;;;;;;;;;;;;;;;;;5001169;28;19922;-82
2023/03/16 07:32:10;;;;;;;;;;;;;;;;;;4999829;28;19921;-82
2023/03/16 07:34:57;;;;;;;;;;;;;;;;;;5001116;28;19929;-82
2023/03/16 07:37:44;;;;;;;;;;;;;;;;;;5001657;28;20408;-82
2023/03/16 07:40:33;;;;;;;;;;;;;;;;;;5001220;28;19917;-78
2023/03/16 07:43:19;;;;;;;;;;;;;;;;;;4998873;28;19922;-82
2023/03/16 07:46:06;;;;;;;;;;;;;;;;;;4996279;28;19956;-82
2023/03/16 07:48:52;;;;;;;;;;;;;;;;;;4999996;28;19922;-82
2023/03/16 07:51:39;;;;;;;;;;;;;;;;;;4999222;28;20447;-80
2023/03/16 07:54:26;;;;;;;;;;;;;;;;;;5002521;28;19925;-80
2023/03/16 07:57:12;;;;;;;;;;;;;;;;;;5000180;28;19929;-81
2023/03/16 07:59:59;;;;;;;;;;;;;;;;;;4993359;28;20238;-81
2023/03/16 08:02:45;;;;;;;;;;;;;;;;;;5001334;28;20294;-81
2023/03/16 08:05:32;;;;;;;;;;;;;;;;;;5000233;28;19922;-80
2023/03/16 08:08:19;;;;;;;;;;;;;;;;;;5004433;28;19926;-80
2023/03/16 08:11:05;;;;;;;;;;;;;;;;;;5001467;28;19917;-81
2023/03/16 08:13:55;;;;;;;;;;;;;;;;;;5006099;28;19925;-80
2023/03/16 08:16:41;;;;;;;;;;;;;;;;;;5001472;28;20423;-81
2023/03/16 08:19:28;;;;;;;;;;;;;;;;;;5006938;28;19922;-81
2023/03/16 08:22:15;;;;;;;;;;;;;;;;;;5003400;28;20090;-81
2023/03/16 08:25:02;;;;;;;;;;;;;;;;;;5005088;28;20028;-80
2023/03/16 08:27:49;;;;;;;;;;;;;;;;;;5005350;28;19928;-81
2023/03/16 08:30:35;;;;;;;;;;;;;;;;;;5005582;28;19917;-81
2023/03/16 08:33:22;;;;;;;;;;;;;;;;;;5006166;28;20246;-81
2023/03/16 08:36:08;;;;;;;;;;;;;;;;;;5001739;28;20308;-82
2023/03/16 08:38:55;;;;;;;;;;;;;;;;;;4993284;28;19925;-81
2023/03/16 08:41:41;;;;;;;;;;;;;;;;;;5004468;28;19924;-81
2023/03/16 08:44:28;;;;;;;;;;;;;;;;;;5004162;28;19917;-81
2023/03/16 08:47:14;;;;;;;;;;;;;;;;;;5005055;28;20435;-81
2023/03/16 08:50:01;;;;;;;;;;;;;;;;;;5004336;28;19924;-81
2023/03/16 08:52:47;;;;;;;;;;;;;;;;;;4999582;28;19918;-81
2023/03/16 08:55:35;;;;;;;;;;;;;;;;;;5003488;28;19937;-81
2023/03/16 08:58:22;;;;;;;;;;;;;;;;;;4996543;28;19929;-81
2023/03/16 09:01:08;;;;;;;;;;;;;;;;;;5004208;28;19921;-80
2023/03/16 09:03:55;;;;;;;;;;;;;;;;;;5003661;28;19933;-80
2023/03/16 09:06:41;;;;;;;;;;;;;;;;;;5003699;28;19926;-80
2023/03/16 09:09:29;;;;;;;;;;;;;;;;;;5009206;28;19927;-80
2023/03/16 09:12:16;;;;;;;;;;;;;;;;;;5004838;28;19928;-80
2023/03/16 09:15:02;;;;;;;;;;;;;;;;;;5003779;28;20365;-80
2023/03/16 09:17:49;;;;;;;;;;;;;;;;;;5002576;28;19940;-80
2023/03/16 09:20:36;;;;;;;;;;;;;;;;;;5007712;28;19921;-79
2023/03/16 09:23:22;;;;;;;;;;;;;;;;;;5005444;28;19914;-80
2023/03/16 09:26:09;;;;;;;;;;;;;;;;;;5005266;28;19928;-80
2023/03/16 09:28:55;;;;;;;;;;;;;;;;;;5004800;28;19917;-80
2023/03/16 09:31:42;;;;;;;;;;;;;;;;;;4998892;28;20290;-80
2023/03/16 09:34:28;;;;;;;;;;;;;;;;;;5005788;28;19929;-81
2023/03/16 09:37:15;;;;;;;;;;;;;;;;;;5003282;28;20301;-81
2023/03/16 09:40:02;;;;;;;;;;;;;;;;;;5005143;28;19918;-81
2023/03/16 09:42:48;;;;;;;;;;;;;;;;;;5003899;28;20377;-81
2023/03/16 09:45:35;;;;;;;;;;;;;;;;;;5002576;28;19929;-81
2023/03/16 09:48:23;;;;;;;;;;;;;;;;;;5006353;28;20369;-80
2023/03/16 09:51:09;;;;;;;;;;;;;;;;;;4998238;28;19928;-80
2023/03/16 09:53:56;;;;;;;;;;;;;;;;;;4999809;28;20452;-80
2023/03/16 09:56:43;;;;;;;;;;;;;;;;;;5001541;28;19929;-80
2023/03/16 09:59:29;;;;;;;;;;;;;;;;;;5003603;28;19922;-80
2023/03/16 10:02:16;;;;;;;;;;;;;;;;;;5002863;28;19929;-80
2023/03/16 10:05:05;;;;;;;;;;;;;;;;;;5000754;28;20396;-80
2023/03/16 10:07:52;;;;;;;;;;;;;;;;;;4997829;28;19925;-80
2023/03/16 10:10:38;;;;;;;;;;;;;;;;;;4994600;28;20472;-79
2023/03/16 10:13:25;;;;;;;;;;;;;;;;;;5002165;28;20436;-81
2023/03/16 10:16:11;;;;;;;;;;;;;;;;;;5002947;28;19921;-82
2023/03/16 10:18:58;;;;;;;;;;;;;;;;;;4995238;28;19921;-81
2023/03/16 10:21:44;;;;;;;;;;;;;;;;;;5003897;28;19924;-80
2023/03/16 10:24:33;;;;;;;;;;;;;;;;;;5002055;28;19928;-80
2023/03/16 10:27:20;;;;;;;;;;;;;;;;;;5002122;28;19921;-81
2023/03/16 10:30:06;;;;;;;;;;;;;;;;;;5001415;28;19929;-81
2023/03/16 10:32:52;;;;;;;;;;;;;;;;;;4991906;28;20437;-81
2023/03/16 10:35:40;;;;;;;;;;;;;;;;;;5002611;28;19933;-81
2023/03/16 10:38:26;;;;;;;;;;;;;;;;;;5002158;28;19929;-81
2023/03/16 10:41:15;;;;;;;;;;;;;;;;;;5001334;28;19925;-82
2023/03/16 10:44:06;;;;;;;;;;;;;;;;;;5001459;28;19917;-81
2023/03/16 10:46:54;;;;;;;;;;;;;;;;;;5001902;28;19929;-81
2023/03/16 10:49:43;;;;;;;;;;;;;;;;;;5003328;28;20479;-80
2023/03/16 10:52:29;;;;;;;;;;;;;;;;;;5004157;28;19922;-80
2023/03/16 10:55:16;;;;;;;;;;;;;;;;;;5002115;28;20391;-81
2023/03/16 10:58:03;;;;;;;;;;;;;;;;;;5002149;28;19935;-80
2023/03/16 11:00:50;;;;;;;;;;;;;;;;;;4999766;28;19988;-81
2023/03/16 11:03:37;;;;;;;;;;;;;;;;;;5001167;28;19935;-80
2023/03/16 11:06:24;;;;;;;;;;;;;;;;;;5002523;28;20243;-80
2023/03/16 11:09:11;;;;;;;;;;;;;;;;;;5002773;28;19924;-80
2023/03/16 11:11:57;;;;;;;;;;;;;;;;;;4996713;28;19918;-81
2023/03/16 11:14:44;;;;;;;;;;;;;;;;;;5001918;28;19922;-80
2023/03/16 11:17:31;;;;;;;;;;;;;;;;;;5003472;28;19929;-80
2023/03/16 11:20:18;;;;;;;;;;;;;;;;;;5000083;28;19932;-81
2023/03/16 11:23:04;;;;;;;;;;;;;;;;;;4999863;28;19921;-80
2023/03/16 11:25:52;;;;;;;;;;;;;;;;;;4989697;28;20415;-79
2023/03/16 11:28:38;;;;;;;;;;;;;;;;;;5001407;28;19918;-79
2023/03/16 11:31:26;;;;;;;;;;;;;;;;;;5004017;28;20344;-79
2023/03/16 11:34:13;;;;;;;;;;;;;;;;;;4992504;28;19920;-78
2023/03/16 11:36:59;;;;;;;;;;;;;;;;;;4998325;28;20573;-78
2023/03/16 11:39:46;;;;;;;;;;;;;;;;;;5003420;28;20573;-81
2023/03/16 11:42:33;;;;;;;;;;;;;;;;;;5009000;28;19932;-77
2023/03/16 11:45:19;;;;;;;;;;;;;;;;;;5008702;28;20573;-76
2023/03/16 11:48:06;;;;;;;;;;;;;;;;;;4997751;28;19917;-78
2023/03/16 11:50:52;;;;;;;;;;;;;;;;;;5001498;28;19924;-78
2023/03/16 11:53:40;;;;;;;;;;;;;;;;;;5002855;28;19928;-78
2023/03/16 11:56:26;;;;;;;;;;;;;;;;;;5006887;28;20356;-77
2023/03/16 11:59:13;;;;;;;;;;;;;;;;;;5018092;28;19925;-77
2023/03/16 12:01:59;;;;;;;;;;;;;;;;;;5004991;28;19944;-79
2023/03/16 12:04:46;;;;;;;;;;;;;;;;;;5000693;28;19929;-80
2023/03/16 12:07:34;;;;;;;;;;;;;;;;;;5003443;28;19913;-79
2023/03/16 12:10:22;;;;;;;;;;;;;;;;;;5005881;28;19945;-80
2023/03/16 12:13:09;;;;;;;;;;;;;;;;;;5004004;28;20308;-79
2023/03/16 12:15:55;;;;;;;;;;;;;;;;;;5000547;28;19948;-79
2023/03/16 12:18:42;;;;;;;;;;;;;;;;;;5002215;28;19929;-79
2023/03/16 12:21:31;;;;;;;;;;;;;;;;;;5006858;28;20301;-79
2023/03/16 12:24:17;;;;;;;;;;;;;;;;;;5000563;28;19918;-79
2023/03/16 12:27:05;;;;;;;;;;;;;;;;;;5005344;28;20532;-79
2023/03/16 12:29:54;;;;;;;;;;;;;;;;;;5005690;28;19944;-79
2023/03/16 12:32:41;;;;;;;;;;;;;;;;;;5004678;28;19917;-79
2023/03/16 12:35:27;;;;;;;;;;;;;;;;;;5005557;28;19929;-80
2023/03/16 12:38:14;;;;;;;;;;;;;;;;;;5004055;28;19929;-79
2023/03/16 12:41:00;;;;;;;;;;;;;;;;;;5002703;28;19967;-80
2023/03/16 12:43:46;;;;;;;;;;;;;;;;;;5002966;28;20373;-80
2023/03/16 12:46:33;;;;;;;;;;;;;;;;;;5004667;28;19921;-79
2023/03/16 12:49:20;;;;;;;;;;;;;;;;;;5003864;28;20417;-79
2023/03/16 12:52:06;;;;;;;;;;;;;;;;;;5003890;28;19921;-79
2023/03/16 12:54:53;;;;;;;;;;;;;;;;;;5002420;28;19972;-79
2023/03/16 12:57:40;;;;;;;;;;;;;;;;;;5004351;28;19930;-78
2023/03/16 13:00:26;;;;;;;;;;;;;;;;;;5003916;28;19928;-81
2023/03/16 13:03:13;;;;;;;;;;;;;;;;;;5004113;28;19937;-80
2023/03/16 13:05:59;;;;;;;;;;;;;;;;;;5003149;28;19933;-81
2023/03/16 13:08:46;;;;;;;;;;;;;;;;;;4997826;28;20274;-79
2023/03/16 13:11:33;;;;;;;;;;;;;;;;;;5003305;28;19924;-79
2023/03/16 13:14:19;;;;;;;;;;;;;;;;;;5008301;28;20376;-80
2023/03/16 13:17:06;;;;;;;;;;;;;;;;;;5000994;28;19928;-81
2023/03/16 13:19:52;;;;;;;;;;;;;;;;;;5004796;28;19980;-80
2023/03/16 13:22:39;;;;;;;;;;;;;;;;;;4996704;28;19917;-78
2023/03/16 13:25:25;;;;;;;;;;;;;;;;;;5004111;28;19921;-79
2023/03/16 13:28:11;;;;;;;;;;;;;;;;;;5004946;28;19917;-80
2023/03/16 13:30:58;;;;;;;;;;;;;;;;;;5005261;28;20388;-80
2023/03/16 13:33:44;;;;;;;;;;;;;;;;;;5004360;28;19929;-79
2023/03/16 13:36:31;;;;;;;;;;;;;;;;;;5005155;28;19918;-78
2023/03/16 13:39:18;;;;;;;;;;;;;;;;;;5005340;28;19917;-79
2023/03/16 13:42:04;;;;;;;;;;;;;;;;;;4998115;28;19948;-80
2023/03/16 13:44:51;;;;;;;;;;;;;;;;;;5005053;28;20729;-79
2023/03/16 13:47:37;;;;;;;;;;;;;;;;;;5004039;28;20388;-79
2023/03/16 13:50:24;;;;;;;;;;;;;;;;;;4999885;28;19928;-80
2023/03/16 13:53:13;;;;;;;;;;;;;;;;;;5001637;28;19924;-80
2023/03/16 13:56:01;;;;;;;;;;;;;;;;;;4998429;28;19921;-80
2023/03/16 13:58:47;;;;;;;;;;;;;;;;;;5004175;28;19930;-80
2023/03/16 14:01:34;;;;;;;;;;;;;;;;;;5000772;28;19937;-80
2023/03/16 14:04:22;;;;;;;;;;;;;;;;;;5003203;28;19929;-80
2023/03/16 14:07:10;;;;;;;;;;;;;;;;;;5002002;28;20290;-80
2023/03/16 14:09:57;;;;;;;;;;;;;;;;;;5001730;28;19917;-80
2023/03/16 14:12:44;;;;;;;;;;;;;;;;;;4999628;28;20297;-80
2023/03/16 14:15:30;;;;;;;;;;;;;;;;;;5000369;28;20496;-81
2023/03/16 14:18:20;;;;;;;;;;;;;;;;;;5002884;28;19936;-80
2023/03/16 14:21:07;;;;;;;;;;;;;;;;;;4998731;28;20456;-81
2023/03/16 14:23:54;;;;;;;;;;;;;;;;;;5000325;28;19928;-81
2023/03/16 14:26:40;;;;;;;;;;;;;;;;;;5000483;28;19932;-82
2023/03/16 14:29:27;;;;;;;;;;;;;;;;;;5004651;28;19920;-80
2023/03/16 14:32:15;;;;;;;;;;;;;;;;;;5001771;28;19921;-80
2023/03/16 14:35:01;;;;;;;;;;;;;;;;;;5002740;28;19913;-80
2023/03/16 14:37:50;;;;;;;;;;;;;;;;;;4996320;28;19949;-81
2023/03/16 14:40:36;;;;;;;;;;;;;;;;;;5001206;28;19917;-80
2023/03/16 14:43:23;;;;;;;;;;;;;;;;;;5002494;28;19924;-82
2023/03/16 14:46:09;;;;;;;;;;;;;;;;;;5000654;28;20424;-81
2023/03/16 14:48:56;;;;;;;;;;;;;;;;;;5002191;28;19921;-80
2023/03/16 14:51:42;;;;;;;;;;;;;;;;;;5000952;28;19953;-81
2023/03/16 14:54:29;;;;;;;;;;;;;;;;;;5002627;28;20292;-82
2023/03/16 14:57:15;;;;;;;;;;;;;;;;;;4999900;28;19933;-81
2023/03/16 15:00:04;;;;;;;;;;;;;;;;;;5002286;28;19918;-81
2023/03/16 15:02:51;;;;;;;;;;;;;;;;;;5000630;28;19934;-80
2023/03/16 15:05:37;;;;;;;;;;;;;;;;;;5004164;28;20292;-79
2023/03/16 15:08:26;;;;;;;;;;;;;;;;;;5004854;28;19925;-80
2023/03/16 15:11:12;;;;;;;;;;;;;;;;;;5002687;28;19921;-81
2023/03/16 15:14:13;;;;;;;;;;;;;;;;;;5002411;28;20270;-80
2023/03/16 15:17:00;;;;;;;;;;;;;;;;;;5003696;28;19963;-79
2023/03/16 15:19:49;;;;;;;;;;;;;;;;;;5005129;28;19921;-80
2023/03/16 15:22:35;;;;;;;;;;;;;;;;;;5004427;28;19928;-79
2023/03/16 15:25:22;;;;;;;;;;;;;;;;;;5008010;28;19920;-79
2023/03/16 15:28:10;;;;;;;;;;;;;;;;;;5003035;28;19944;-84
2023/03/16 15:30:56;;;;;;;;;;;;;;;;;;5004851;28;19921;-84
2023/03/16 15:33:44;;;;;;;;;;;;;;;;;;5005651;28;19928;-82
2023/03/16 15:36:30;;;;;;;;;;;;;;;;;;5005745;28;19925;-82
2023/03/16 15:39:17;;;;;;;;;;;;;;;;;;5002911;28;20157;-83
2023/03/16 15:42:03;;;;;;;;;;;;;;;;;;5006180;28;19925;-82
2023/03/16 15:44:50;;;;;;;;;;;;;;;;;;5006235;28;19925;-82
2023/03/16 15:47:36;;;;;;;;;;;;;;;;;;5003928;28;20404;-82
2023/03/16 15:50:26;;;;;;;;;;;;;;;;;;5004838;28;19926;-80
2023/03/16 15:53:12;;;;;;;;;;;;;;;;;;5006639;28;19918;-79
2023/03/16 15:56:00;;;;;;;;;;;;;;;;;;5001138;28;19931;-81
2023/03/16 15:58:46;;;;;;;;;;;;;;;;;;5000106;28;19931;-80
2023/03/16 16:01:34;;;;;;;;;;;;;;;;;;4997823;28;19922;-80
2023/03/16 16:04:22;;;;;;;;;;;;;;;;;;5004319;28;20324;-81
2023/03/16 16:07:09;;;;;;;;;;;;;;;;;;5003260;28;19956;-80
2023/03/16 16:09:56;;;;;;;;;;;;;;;;;;5004106;28;19935;-80
2023/03/16 16:12:49;;;;;;;;;;;;;;;;;;5005477;28;19921;-80
2023/03/16 16:15:37;;;;;;;;;;;;;;;;;;5005485;28;19926;-81
2023/03/16 16:18:23;;;;;;;;;;;;;;;;;;5005949;28;19927;-81
2023/03/16 16:21:10;;;;;;;;;;;;;;;;;;5005303;28;20444;-80
2023/03/16 16:23:57;;;;;;;;;;;;;;;;;;5000170;28;19922;-80
2023/03/16 16:26:43;;;;;;;;;;;;;;;;;;5005436;28;19917;-80
2023/03/16 16:29:30;;;;;;;;;;;;;;;;;;5005907;28;20281;-80
2023/03/16 16:32:17;;;;;;;;;;;;;;;;;;5007030;28;19917;-81
2023/03/16 16:35:03;;;;;;;;;;;;;;;;;;5005679;28;19964;-81
2023/03/16 16:37:53;;;;;;;;;;;;;;;;;;5004605;28;19948;-81
2023/03/16 16:40:44;;;;;;;;;;;;;;;;;;5002737;28;19924;-81
2023/03/16 16:43:31;;;;;;;;;;;;;;;;;;5005410;28;20024;-80
2023/03/16 16:46:18;;;;;;;;;;;;;;;;;;4992125;28;19929;-81
2023/03/16 16:49:04;;;;;;;;;;;;;;;;;;5001887;28;19937;-80
2023/03/16 16:51:51;;;;;;;;;;;;;;;;;;4996502;28;19934;-80
2023/03/16 16:54:37;;;;;;;;;;;;;;;;;;5005424;28;19928;-80
2023/03/16 16:57:24;;;;;;;;;;;;;;;;;;5005184;28;19932;-80
2023/03/16 17:00:11;;;;;;;;;;;;;;;;;;5003643;28;19940;-81
2023/03/16 17:02:57;;;;;;;;;;;;;;;;;;4996892;28;19930;-82
2023/03/16 17:05:44;;;;;;;;;;;;;;;;;;5006044;28;19933;-82
2023/03/16 17:08:31;;;;;;;;;;;;;;;;;;4998440;28;20381;-82
2023/03/16 17:11:17;;;;;;;;;;;;;;;;;;5000661;28;19914;-82
2023/03/16 17:14:04;;;;;;;;;;;;;;;;;;5003995;28;19924;-82
2023/03/16 17:16:52;;;;;;;;;;;;;;;;;;4999649;28;19925;-83
2023/03/16 17:19:38;;;;;;;;;;;;;;;;;;4998815;28;19928;-83
2023/03/16 17:22:25;;;;;;;;;;;;;;;;;;4997310;28;20470;-81
2023/03/16 17:25:13;;;;;;;;;;;;;;;;;;5000909;28;19923;-83
2023/03/16 17:27:59;;;;;;;;;;;;;;;;;;5005388;28;19955;-82
2023/03/16 17:30:47;;;;;;;;;;;;;;;;;;4999647;28;19921;-79
2023/03/16 17:33:34;;;;;;;;;;;;;;;;;;5005441;28;19918;-79
2023/03/16 17:36:21;;;;;;;;;;;;;;;;;;5001621;28;19949;-80
2023/03/16 17:39:08;;;;;;;;;;;;;;;;;;5004104;28;19937;-80
2023/03/16 17:41:55;;;;;;;;;;;;;;;;;;5000392;28;20326;-80
2023/03/16 17:44:41;;;;;;;;;;;;;;;;;;4995262;28;19928;-82
2023/03/16 17:47:28;;;;;;;;;;;;;;;;;;5004757;28;19914;-79
2023/03/16 17:50:15;;;;;;;;;;;;;;;;;;5002010;28;19917;-79
2023/03/16 17:53:02;;;;;;;;;;;;;;;;;;4998037;28;19918;-79
2023/03/16 17:55:49;;;;;;;;;;;;;;;;;;5004223;28;19914;-78
2023/03/16 17:58:35;;;;;;;;;;;;;;;;;;5004582;28;20389;-79
2023/03/16 18:01:22;;;;;;;;;;;;;;;;;;4993705;28;20372;-79
2023/03/16 18:04:08;;;;;;;;;;;;;;;;;;5004595;28;19952;-80
2023/03/16 18:06:55;;;;;;;;;;;;;;;;;;5004068;28;19924;-79
2023/03/16 18:09:42;;;;;;;;;;;;;;;;;;4995806;28;19926;-81
2023/03/16 18:12:29;;;;;;;;;;;;;;;;;;5004042;28;19952;-80
2023/03/16 18:15:17;;;;;;;;;;;;;;;;;;4999618;28;19991;-80
2023/03/16 18:18:03;;;;;;;;;;;;;;;;;;4994973;28;20312;-79
2023/03/16 18:20:50;;;;;;;;;;;;;;;;;;5002955;28;20399;-80
2023/03/16 18:23:37;;;;;;;;;;;;;;;;;;4998422;28;19921;-80
2023/03/16 18:26:24;;;;;;;;;;;;;;;;;;5004562;28;19921;-78
2023/03/16 18:29:12;;;;;;;;;;;;;;;;;;4998643;28;19922;-78
2023/03/16 18:31:59;;;;;;;;;;;;;;;;;;4995644;28;20341;-78
2023/03/16 18:34:46;;;;;;;;;;;;;;;;;;5001584;28;20444;-80
2023/03/16 18:37:32;;;;;;;;;;;;;;;;;;5002249;28;19921;-77
2023/03/16 18:40:19;;;;;;;;;;;;;;;;;;5001753;28;19917;-77
2023/03/16 18:43:07;;;;;;;;;;;;;;;;;;4999840;28;20482;-79
2023/03/16 18:45:53;;;;;;;;;;;;;;;;;;5004086;28;20287;-79
2023/03/16 18:48:40;;;;;;;;;;;;;;;;;;5002534;28;19927;-79
2023/03/16 18:51:26;;;;;;;;;;;;;;;;;;5006795;28;19917;-79
2023/03/16 18:54:14;;;;;;;;;;;;;;;;;;5003571;28;19918;-79
2023/03/16 18:57:03;;;;;;;;;;;;;;;;;;5007032;28;19918;-79
2023/03/16 18:59:49;;;;;;;;;;;;;;;;;;5006905;28;20019;-79